Time;durP1;ratioP1;P1;durP2;ratioP2;P2;SDS_P1;SDS_P2;PMS_P1;PMS_P2;Temp;Humidity;BMP_temperature;BMP_pressure;BME280_temperature;BME280_humidity;BME280_pressure;Samples;Min_cycle;Max_cycle;Signal;HPM_P1;HPM_P2
2023/05/18 00:01:52;;;;;;;2.78;1.00;;;14.40;99.90;;;;;;5035619;28;20200;-73
2023/05/18 00:04:25;;;;;;;4.00;1.20;;;14.40;99.90;;;;;;5017196;28;20235;-73
2023/05/18 00:07:02;;;;;;;4.05;1.10;;;14.40;99.90;;;;;;5027707;28;20202;-75
2023/05/18 00:09:34;;;;;;;7.28;1.58;;;14.50;99.90;;;;;;5028989;28;20213;-74
2023/05/18 00:12:06;;;;;;;3.85;1.10;;;14.70;99.90;;;;;;5021223;28;20202;-74
2023/05/18 00:14:37;;;;;;;4.03;1.05;;;14.90;99.90;;;;;;5030513;28;20198;-75
2023/05/18 00:17:08;;;;;;;1.35;0.85;;;15.10;99.90;;;;;;5035585;28;20201;-74
2023/05/18 00:19:41;;;;;;;3.67;0.98;;;15.10;99.90;;;;;;5017259;28;20215;-74
2023/05/18 00:22:17;;;;;;;1.63;1.10;;;15.10;99.90;;;;;;5018586;28;20564;-75
2023/05/18 00:24:49;;;;;;;3.33;0.90;;;15.10;99.90;;;;;;5015263;28;20222;-74
2023/05/18 00:27:20;;;;;;;4.10;1.10;;;15.10;99.90;;;;;;5019779;28;20680;-73
2023/05/18 00:29:51;;;;;;;6.53;1.10;;;15.00;99.90;;;;;;5015626;28;20565;-74
2023/05/18 00:32:22;;;;;;;4.38;1.10;;;14.90;99.90;;;;;;5017064;28;20733;-72
2023/05/18 00:34:55;;;;;;;6.30;1.08;;;14.90;99.90;;;;;;5023222;28;20194;-72
2023/05/18 00:37:26;;;;;;;1.60;1.00;;;15.00;99.90;;;;;;5016964;28;20245;-72
2023/05/18 00:39:57;;;;;;;5.35;1.40;;;15.10;99.90;;;;;;5031067;28;20220;-72
2023/05/18 00:42:28;;;;;;;3.25;1.10;;;15.20;99.90;;;;;;5023970;28;20193;-72
2023/05/18 00:44:59;;;;;;;3.95;1.00;;;15.20;99.90;;;;;;5031173;28;20202;-72
2023/05/18 00:47:31;;;;;;;3.38;0.90;;;15.20;99.90;;;;;;5027292;28;20630;-75
2023/05/18 00:50:04;;;;;;;3.30;0.82;;;15.30;99.90;;;;;;5012275;28;20194;-74
2023/05/18 00:52:36;;;;;;;4.53;1.00;;;15.30;99.90;;;;;;5023733;28;20285;-75
2023/05/18 00:55:08;;;;;;;4.70;1.45;;;15.40;99.90;;;;;;5017315;28;20680;-74
2023/05/18 00:57:40;;;;;;;1.95;0.90;;;15.40;99.90;;;;;;5023199;28;20257;-75
2023/05/18 01:00:16;;;;;;;3.72;1.50;;;15.50;99.90;;;;;;5016388;28;20225;-74
2023/05/18 01:02:49;;;;;;;2.17;0.93;;;15.60;99.90;;;;;;5019003;28;20559;-75
2023/05/18 01:05:22;;;;;;;5.18;1.00;;;15.80;99.90;;;;;;5024819;28;20244;-74
2023/05/18 01:07:55;;;;;;;1.75;0.95;;;15.80;99.90;;;;;;5022001;28;20198;-75
2023/05/18 01:10:26;;;;;;;8.40;1.80;;;15.90;99.90;;;;;;5017198;28;20277;-74
2023/05/18 01:13:01;;;;;;;5.57;1.13;;;16.00;99.90;;;;;;5020803;28;20201;-75
2023/05/18 01:15:37;;;;;;;3.90;0.82;;;16.10;99.90;;;;;;5027289;28;20195;-75
2023/05/18 01:18:16;;;;;;;1.10;0.65;;;16.10;99.90;;;;;;5015648;28;20202;-74
2023/05/18 01:20:51;;;;;;;2.58;0.60;;;16.20;99.90;;;;;;5022181;28;20228;-74
2023/05/18 01:23:48;;;;;;;2.78;0.82;;;16.30;99.90;;;;;;5023584;28;20190;-76
2023/05/18 01:26:28;;;;;;;2.70;0.70;;;16.30;99.90;;;;;;5015542;28;20598;-75
2023/05/18 01:29:01;;;;;;;1.75;0.80;;;16.30;99.90;;;;;;5021275;28;20272;-75
2023/05/18 01:31:32;;;;;;;3.42;0.60;;;16.30;99.90;;;;;;5024743;28;20194;-77
2023/05/18 01:34:03;;;;;;;1.88;0.60;;;16.40;99.90;;;;;;5014928;28;20210;-75
2023/05/18 01:36:35;;;;;;;2.05;0.70;;;16.50;99.90;;;;;;5021866;28;20201;-74
2023/05/18 01:39:06;;;;;;;5.55;1.02;;;16.70;99.90;;;;;;5025375;28;20209;-74
2023/05/18 01:41:43;;;;;;;3.08;0.60;;;16.90;99.90;;;;;;5022059;28;20210;-74
2023/05/18 01:44:20;;;;;;;2.60;0.68;;;17.10;99.90;;;;;;5030499;28;20567;-73
2023/05/18 01:46:59;;;;;;;3.58;0.80;;;17.00;99.90;;;;;;5016499;28;20666;-72
2023/05/18 01:49:34;;;;;;;3.47;0.77;;;17.00;99.90;;;;;;5024646;28;20248;-72
2023/05/18 01:52:09;;;;;;;3.47;0.70;;;16.90;99.90;;;;;;5021443;28;20858;-73
2023/05/18 01:54:43;;;;;;;1.65;0.60;;;16.80;99.90;;;;;;5014264;28;20186;-73
2023/05/18 01:57:17;;;;;;;4.30;0.75;;;16.90;99.90;;;;;;5014267;28;20199;-74
2023/05/18 01:59:48;;;;;;;3.58;0.80;;;16.90;99.90;;;;;;5014280;28;20191;-74
2023/05/18 02:02:19;;;;;;;1.83;0.70;;;16.80;99.90;;;;;;5014199;28;20218;-75
2023/05/18 02:04:50;;;;;;;1.77;0.60;;;16.70;99.90;;;;;;5027120;28;20197;-73
2023/05/18 02:07:21;;;;;;;3.28;0.50;;;16.60;99.90;;;;;;5022325;28;20198;-74
2023/05/18 02:09:52;;;;;;;2.05;0.70;;;16.40;99.90;;;;;;5025650;28;20209;-75
2023/05/18 02:12:26;;;;;;;1.63;0.50;;;16.40;99.90;;;;;;5017626;28;20199;-72
2023/05/18 02:14:57;;;;;;;3.60;0.60;;;16.40;99.90;;;;;;5033676;28;20194;-72
2023/05/18 02:17:28;;;;;;;2.42;0.57;;;16.60;99.90;;;;;;5023482;28;20538;-73
2023/05/18 02:19:59;;;;;;;3.13;0.60;;;16.80;99.90;;;;;;5013679;28;20222;-72
2023/05/18 02:22:30;;;;;;;1.90;0.65;;;16.80;99.90;;;;;;5014235;28;20191;-72
2023/05/18 02:25:01;;;;;;;2.45;0.50;;;16.80;99.90;;;;;;5013047;28;20241;-72
2023/05/18 02:27:35;;;;;;;3.67;0.85;;;16.90;99.90;;;;;;5019031;28;20526;-72
2023/05/18 02:30:07;;;;;;;1.45;0.60;;;17.00;99.90;;;;;;5016435;28;20228;-73
2023/05/18 02:32:38;;;;;;;3.00;0.70;;;17.10;99.90;;;;;;5025743;28;20202;-72
2023/05/18 02:35:10;;;;;;;2.83;0.68;;;17.20;99.90;;;;;;5030978;28;20205;-72
2023/05/18 02:37:42;;;;;;;3.67;0.65;;;17.30;99.90;;;;;;5019726;28;20608;-73
2023/05/18 02:40:14;;;;;;;3.22;0.50;;;17.40;99.90;;;;;;5013738;28;20419;-72
2023/05/18 02:42:47;;;;;;;1.60;0.52;;;17.30;99.90;;;;;;5031902;28;20194;-72
2023/05/18 02:45:19;;;;;;;2.97;0.68;;;17.10;99.90;;;;;;5033417;28;20194;-72
2023/05/18 02:47:50;;;;;;;1.92;0.70;;;16.80;99.90;;;;;;5032586;28;20206;-74
2023/05/18 02:50:21;;;;;;;3.28;0.75;;;16.60;99.90;;;;;;5031585;28;20553;-75
2023/05/18 02:52:52;;;;;;;2.75;0.80;;;16.50;99.90;;;;;;5025598;28;20209;-72
2023/05/18 02:55:24;;;;;;;3.38;0.60;;;16.40;99.90;;;;;;5027810;28;20401;-72
2023/05/18 02:57:58;;;;;;;6.70;1.20;;;16.30;99.90;;;;;;5017412;28;20248;-72
2023/05/18 03:00:30;;;;;;;2.13;0.73;;;16.40;99.90;;;;;;5013356;28;20563;-72
2023/05/18 03:03:01;;;;;;;3.03;0.77;;;16.30;99.90;;;;;;5022322;28;20252;-72
2023/05/18 03:05:32;;;;;;;3.40;0.88;;;16.30;99.90;;;;;;5013360;28;20206;-72
2023/05/18 03:08:04;;;;;;;4.72;1.17;;;16.30;99.90;;;;;;5020196;28;20202;-72
2023/05/18 03:10:35;;;;;;;1.35;0.80;;;16.40;99.90;;;;;;5032755;28;20577;-72
2023/05/18 03:13:08;;;;;;;3.20;0.80;;;16.40;99.90;;;;;;5023722;28;20568;-72
2023/05/18 03:15:40;;;;;;;2.28;0.80;;;16.40;99.90;;;;;;5018773;28;20214;-70
2023/05/18 03:18:11;;;;;;;1.55;0.52;;;16.40;99.90;;;;;;5027480;28;20191;-72
2023/05/18 03:20:42;;;;;;;3.75;1.00;;;16.30;99.90;;;;;;5019210;28;20314;-71
2023/05/18 03:23:14;;;;;;;4.35;0.80;;;16.30;99.90;;;;;;5013435;28;20198;-71
2023/05/18 03:25:45;;;;;;;2.95;0.63;;;16.30;99.90;;;;;;5014960;28;20597;-72
2023/05/18 03:28:18;;;;;;;5.07;1.00;;;16.30;99.90;;;;;;5025194;28;20198;-72
2023/05/18 03:30:50;;;;;;;2.88;0.70;;;16.40;99.90;;;;;;5030299;28;20669;-72
2023/05/18 03:33:21;;;;;;;6.22;0.70;;;16.40;99.90;;;;;;5031713;28;20200;-72
2023/05/18 03:35:53;;;;;;;3.97;1.00;;;16.30;99.90;;;;;;5029583;28;20183;-71
2023/05/18 03:38:24;;;;;;;1.45;0.60;;;16.30;99.90;;;;;;5014406;28;20655;-72
2023/05/18 03:40:55;;;;;;;4.25;0.80;;;16.30;99.90;;;;;;5025179;28;20221;-72
2023/05/18 03:43:31;;;;;;;3.13;0.65;;;16.30;99.90;;;;;;5020285;28;20199;-72
2023/05/18 03:46:02;;;;;;;2.22;0.70;;;16.30;99.90;;;;;;5029177;28;20194;-72
2023/05/18 03:48:33;;;;;;;1.90;0.80;;;16.40;99.90;;;;;;5015745;28;20298;-73
2023/05/18 03:51:07;;;;;;;2.60;0.95;;;16.50;99.90;;;;;;5016157;28;20199;-73
2023/05/18 03:53:38;;;;;;;2.53;0.80;;;16.70;99.90;;;;;;5022377;28;20261;-72
2023/05/18 03:56:12;;;;;;;3.00;0.70;;;16.80;99.90;;;;;;5029065;28;20198;-72
2023/05/18 03:58:45;;;;;;;3.65;0.60;;;16.80;99.90;;;;;;5023449;28;20238;-72
2023/05/18 04:01:17;;;;;;;3.45;0.50;;;16.70;99.90;;;;;;5020373;28;20229;-72
2023/05/18 04:03:49;;;;;;;1.83;0.50;;;16.60;99.90;;;;;;5021010;28;20643;-72
2023/05/18 04:06:25;;;;;;;1.85;0.65;;;16.70;99.90;;;;;;5023914;28;20199;-72
2023/05/18 04:08:56;;;;;;;4.70;0.90;;;16.80;99.90;;;;;;5034060;28;20198;-71
2023/05/18 04:11:27;;;;;;;3.80;0.77;;;16.70;99.90;;;;;;5031846;28;20195;-72
2023/05/18 04:14:00;;;;;;;3.40;0.80;;;16.70;99.90;;;;;;5023604;28;20209;-73
2023/05/18 04:16:31;;;;;;;4.35;0.73;;;16.60;99.90;;;;;;5036368;28;20202;-72
2023/05/18 04:19:02;;;;;;;1.60;0.38;;;16.60;99.90;;;;;;5020608;28;20650;-72
2023/05/18 04:21:36;;;;;;;3.65;0.60;;;16.70;99.90;;;;;;5030730;28;20218;-74
2023/05/18 04:24:07;;;;;;;1.73;0.60;;;16.70;99.90;;;;;;5010938;28;20209;-74
2023/05/18 04:26:39;;;;;;;2.10;0.68;;;16.60;99.90;;;;;;5032389;28;20218;-73
2023/05/18 04:29:12;;;;;;;2.30;0.60;;;16.40;99.90;;;;;;5035523;28;20194;-73
2023/05/18 04:31:43;;;;;;;1.52;0.60;;;16.40;99.90;;;;;;5024169;28;20286;-74
2023/05/18 04:34:16;;;;;;;3.72;0.50;;;16.30;99.90;;;;;;5023340;28;20199;-73
2023/05/18 04:36:47;;;;;;;4.57;0.60;;;16.40;99.90;;;;;;5023844;28;20199;-74
2023/05/18 04:39:18;;;;;;;3.03;1.00;;;16.30;99.90;;;;;;5017864;28;20199;-73
2023/05/18 04:41:49;;;;;;;2.72;0.55;;;16.40;99.90;;;;;;5015682;28;20226;-73
2023/05/18 04:44:23;;;;;;;1.45;0.70;;;16.60;99.90;;;;;;5017970;28;20199;-74
2023/05/18 04:46:54;;;;;;;5.35;0.70;;;16.70;99.90;;;;;;5020402;28;20225;-74
2023/05/18 04:49:27;;;;;;;3.88;0.60;;;16.80;99.90;;;;;;5018039;28;20430;-73
2023/05/18 04:51:59;;;;;;;3.45;0.77;;;16.70;99.90;;;;;;5026303;28;20194;-74
2023/05/18 04:54:31;;;;;;;2.55;0.90;;;16.70;99.90;;;;;;5030564;28;20202;-73
2023/05/18 04:57:03;;;;;;;4.22;0.90;;;16.60;99.90;;;;;;5027145;28;20190;-72
2023/05/18 04:59:36;;;;;;;2.88;1.02;;;16.50;99.90;;;;;;5035165;28;20196;-73
2023/05/18 05:02:07;;;;;;;2.97;0.60;;;16.40;99.90;;;;;;5027656;28;20594;-72
2023/05/18 05:04:38;;;;;;;3.20;0.55;;;16.20;99.90;;;;;;5035053;28;20276;-72
2023/05/18 05:07:09;;;;;;;2.03;0.60;;;16.20;99.90;;;;;;5035036;28;20217;-72
2023/05/18 05:09:40;;;;;;;3.33;0.70;;;16.10;99.90;;;;;;5034938;28;20194;-73
2023/05/18 05:12:12;;;;;;;2.17;0.50;;;16.20;99.90;;;;;;5034746;28;20194;-72
2023/05/18 05:14:45;;;;;;;1.35;0.80;;;16.20;99.90;;;;;;5034814;28;20657;-72
2023/05/18 05:17:16;;;;;;;3.42;0.77;;;16.20;99.90;;;;;;5035046;28;20194;-72
2023/05/18 05:19:47;;;;;;;2.75;0.73;;;16.20;99.90;;;;;;5034755;28;20194;-72
2023/05/18 05:22:19;;;;;;;3.58;0.60;;;16.20;99.90;;;;;;5034660;28;20220;-72
2023/05/18 05:24:50;;;;;;;4.53;1.05;;;16.30;99.90;;;;;;5034642;28;20564;-73
2023/05/18 05:27:21;;;;;;;1.95;0.60;;;16.30;99.90;;;;;;5034552;28;20559;-72
2023/05/18 05:29:54;;;;;;;2.17;0.60;;;16.30;99.90;;;;;;5034650;28;20226;-72
2023/05/18 05:32:25;;;;;;;4.05;0.65;;;16.30;99.90;;;;;;5034539;28;20197;-73
2023/05/18 05:34:57;;;;;;;4.70;0.70;;;16.20;99.90;;;;;;5034443;28;20194;-73
2023/05/18 05:37:28;;;;;;;2.55;0.75;;;16.20;99.90;;;;;;5034428;28;20269;-72
2023/05/18 05:39:59;;;;;;;4.82;0.90;;;16.30;99.90;;;;;;5034405;28;20190;-74
2023/05/18 05:42:30;;;;;;;4.40;0.70;;;16.30;99.90;;;;;;5034113;28;20221;-72
2023/05/18 05:45:03;;;;;;;1.13;0.55;;;16.30;99.90;;;;;;5034361;28;20190;-73
2023/05/18 05:47:34;;;;;;;6.07;0.73;;;16.40;99.90;;;;;;5034423;28;20186;-73
2023/05/18 05:50:05;;;;;;;7.15;0.77;;;16.50;99.90;;;;;;5026730;28;20195;-73
2023/05/18 05:52:36;;;;;;;7.35;0.90;;;16.50;99.90;;;;;;5026034;28;20190;-74
2023/05/18 05:55:08;;;;;;;5.53;1.30;;;16.50;99.90;;;;;;5014279;28;20203;-74
2023/05/18 05:57:41;;;;;;;7.35;2.08;;;16.40;99.90;;;;;;5014256;28;20230;-73
2023/05/18 06:00:15;;;;;;;4.85;0.65;;;16.30;99.90;;;;;;5014381;28;20274;-73
2023/05/18 06:02:46;;;;;;;5.05;0.98;;;16.20;99.90;;;;;;5014221;28;20257;-73
2023/05/18 06:05:18;;;;;;;4.78;0.85;;;16.10;99.90;;;;;;5014173;28;20195;-73
2023/05/18 06:07:49;;;;;;;4.13;0.73;;;16.00;99.90;;;;;;5014258;28;20635;-74
2023/05/18 06:10:20;;;;;;;3.88;0.68;;;16.00;99.90;;;;;;5013990;28;20713;-74
2023/05/18 06:12:51;;;;;;;4.80;0.70;;;15.90;99.90;;;;;;5014277;28;20217;-74
2023/05/18 06:15:24;;;;;;;2.75;0.73;;;15.80;99.90;;;;;;5014050;28;20195;-74
2023/05/18 06:17:55;;;;;;;4.68;0.80;;;15.80;99.90;;;;;;5014360;28;20658;-73
2023/05/18 06:20:27;;;;;;;3.97;1.00;;;15.70;99.90;;;;;;5014078;28;20367;-74
2023/05/18 06:22:58;;;;;;;3.03;0.90;;;15.60;99.90;;;;;;5014198;28;20272;-74
2023/05/18 06:25:29;;;;;;;3.53;0.80;;;15.60;99.90;;;;;;5013381;28;20231;-73
2023/05/18 06:28:00;;;;;;;3.63;0.77;;;15.50;99.90;;;;;;5013959;28;20195;-73
2023/05/18 06:30:33;;;;;;;3.30;0.73;;;15.50;99.90;;;;;;5013866;28;20196;-73
2023/05/18 06:33:05;;;;;;;4.70;0.80;;;15.50;99.90;;;;;;5006206;28;20194;-73
2023/05/18 06:35:36;;;;;;;4.30;0.68;;;15.50;99.90;;;;;;5013885;28;20195;-73
2023/05/18 06:38:07;;;;;;;4.13;0.98;;;15.50;99.90;;;;;;5008050;28;20562;-74
2023/05/18 06:40:38;;;;;;;4.93;0.73;;;15.50;99.90;;;;;;5029175;28;20194;-74
2023/05/18 06:43:09;;;;;;;3.80;0.80;;;15.40;99.90;;;;;;5029041;28;20223;-74
2023/05/18 06:45:42;;;;;;;3.10;0.90;;;15.40;99.90;;;;;;5025606;28;20194;-74
2023/05/18 06:48:13;;;;;;;5.35;0.80;;;15.40;99.90;;;;;;5019645;28;20195;-73
2023/05/18 06:50:45;;;;;;;1.95;0.50;;;15.40;99.90;;;;;;5013353;28;20191;-73
2023/05/18 06:53:16;;;;;;;1.77;0.43;;;15.30;99.90;;;;;;5016022;28;20194;-74
2023/05/18 06:55:47;;;;;;;4.05;0.70;;;15.30;99.90;;;;;;5013279;28;20209;-74
2023/05/18 06:58:18;;;;;;;3.50;0.80;;;15.20;99.90;;;;;;5016591;28;20261;-74
2023/05/18 07:00:52;;;;;;;1.40;0.70;;;15.20;99.90;;;;;;5017643;28;20205;-73
2023/05/18 07:03:24;;;;;;;2.75;0.80;;;15.10;99.90;;;;;;5016999;28;20222;-78
2023/05/18 07:05:55;;;;;;;7.50;1.48;;;15.10;99.90;;;;;;5020375;28;20606;-74
2023/05/18 07:08:26;;;;;;;6.22;0.70;;;15.10;99.90;;;;;;5017421;28;20198;-74
2023/05/18 07:10:58;;;;;;;2.60;0.70;;;15.10;99.90;;;;;;5013508;28;20661;-74
2023/05/18 07:13:29;;;;;;;4.07;0.70;;;15.00;99.90;;;;;;5013238;28;20226;-73
2023/05/18 07:16:02;;;;;;;3.67;0.75;;;15.00;99.90;;;;;;5023393;28;20654;-74
2023/05/18 07:18:33;;;;;;;2.17;0.75;;;15.00;99.90;;;;;;5022103;28;20198;-74
2023/05/18 07:21:04;;;;;;;2.50;0.57;;;14.90;99.90;;;;;;5033089;28;20209;-74
2023/05/18 07:23:35;;;;;;;3.13;0.60;;;14.90;99.90;;;;;;5031697;28;20220;-74
2023/05/18 07:26:09;;;;;;;4.70;0.88;;;14.90;99.90;;;;;;5029858;28;20226;-74
2023/05/18 07:28:40;;;;;;;3.72;0.77;;;14.90;99.90;;;;;;5027005;28;20209;-74
2023/05/18 07:31:15;;;;;;;3.25;0.68;;;14.80;99.90;;;;;;5024458;28;20201;-74
2023/05/18 07:33:46;;;;;;;4.13;0.85;;;14.80;99.90;;;;;;5018640;28;20202;-73
2023/05/18 07:36:18;;;;;;;4.53;1.02;;;14.80;99.90;;;;;;5032930;28;20316;-74
2023/05/18 07:38:55;;;;;;;3.83;1.02;;;14.80;99.90;;;;;;5026997;28;20206;-74
2023/05/18 07:41:26;;;;;;;4.20;1.10;;;14.80;99.90;;;;;;5018483;28;20221;-74
2023/05/18 07:43:58;;;;;;;1.75;0.80;;;14.80;99.90;;;;;;5032809;28;20264;-74
2023/05/18 07:46:31;;;;;;;2.72;0.88;;;14.70;99.90;;;;;;5023163;28;20199;-74
2023/05/18 07:49:02;;;;;;;2.60;0.75;;;14.70;99.90;;;;;;5019831;28;20207;-74
2023/05/18 07:51:33;;;;;;;1.48;0.82;;;14.70;99.90;;;;;;5025207;28;20554;-74
2023/05/18 07:54:04;;;;;;;3.15;0.98;;;14.60;99.90;;;;;;5018134;28;20210;-74
2023/05/18 07:56:35;;;;;;;4.05;1.67;;;14.60;99.90;;;;;;5034387;28;20198;-74
2023/05/18 07:59:06;;;;;;;2.25;0.98;;;14.60;99.90;;;;;;5029449;28;20233;-74
2023/05/18 08:01:39;;;;;;;3.67;1.10;;;14.50;99.90;;;;;;5022863;28;20195;-74
2023/05/18 08:04:10;;;;;;;2.25;1.00;;;14.50;99.90;;;;;;5025415;28;20206;-74
2023/05/18 08:06:41;;;;;;;6.18;1.30;;;14.50;99.90;;;;;;5032416;28;20210;-74
2023/05/18 08:09:12;;;;;;;1.77;0.80;;;14.50;99.90;;;;;;5034698;28;20248;-74
2023/05/18 08:11:44;;;;;;;3.58;0.93;;;14.50;99.90;;;;;;5035619;28;20198;-73
2023/05/18 08:14:15;;;;;;;4.30;0.90;;;14.50;99.90;;;;;;5034684;28;20203;-74
2023/05/18 08:16:48;;;;;;;2.33;0.82;;;14.50;99.90;;;;;;5019266;28;20559;-74
2023/05/18 08:19:19;;;;;;;3.90;0.98;;;14.50;99.90;;;;;;5029928;28;20194;-74
2023/05/18 08:21:50;;;;;;;3.25;0.90;;;14.50;99.90;;;;;;5032864;28;20278;-75
2023/05/18 08:24:22;;;;;;;3.97;0.80;;;14.50;99.90;;;;;;5025211;28;20194;-74
2023/05/18 08:26:53;;;;;;;4.32;1.00;;;14.50;99.90;;;;;;5034634;28;20202;-73
2023/05/18 08:29:24;;;;;;;5.32;0.90;;;14.50;99.90;;;;;;5031243;28;20202;-73
2023/05/18 08:31:57;;;;;;;2.28;0.80;;;14.50;99.90;;;;;;5030118;28;20249;-74
2023/05/18 08:34:28;;;;;;;2.40;0.70;;;14.50;99.90;;;;;;5029313;28;20249;-73
2023/05/18 08:37:00;;;;;;;3.67;0.80;;;14.40;99.90;;;;;;5023965;28;20632;-74
2023/05/18 08:39:31;;;;;;;3.72;1.02;;;14.40;99.90;;;;;;5028306;28;20199;-74
2023/05/18 08:42:09;;;;;;;3.88;1.20;;;14.40;99.90;;;;;;5031813;28;20214;-74
2023/05/18 08:44:47;;;;;;;4.57;1.20;;;14.40;99.90;;;;;;5026056;28;20261;-74
2023/05/18 08:47:24;;;;;;;5.00;1.30;;;14.40;99.90;;;;;;5029195;28;20198;-74
2023/05/18 08:49:57;;;;;;;5.20;1.20;;;14.30;99.90;;;;;;5020873;28;20201;-73
2023/05/18 08:52:32;;;;;;;4.38;1.10;;;14.30;99.90;;;;;;5025604;28;20264;-74
2023/05/18 08:55:07;;;;;;;4.35;1.73;;;14.30;99.90;;;;;;5033289;28;20579;-74
2023/05/18 08:57:39;;;;;;;5.30;1.85;;;14.30;99.90;;;;;;5024184;28;20296;-74
2023/05/18 09:00:13;;;;;;;5.00;1.85;;;14.20;99.90;;;;;;5018912;28;20195;-74
2023/05/18 09:02:47;;;;;;;4.57;2.17;;;14.20;99.90;;;;;;5027899;28;20220;-74
2023/05/18 09:05:19;;;;;;;5.35;1.65;;;14.20;99.90;;;;;;5018916;28;20191;-74
2023/05/18 09:07:51;;;;;;;4.03;1.60;;;14.10;99.90;;;;;;5026434;28;20198;-74
2023/05/18 09:10:23;;;;;;;5.95;1.67;;;14.10;99.90;;;;;;5029217;28;20198;-74
2023/05/18 09:12:56;;;;;;;2.78;1.30;;;14.10;99.90;;;;;;5022737;28;20636;-74
2023/05/18 09:15:28;;;;;;;3.13;1.40;;;14.10;99.90;;;;;;5017185;28;20201;-73
2023/05/18 09:18:01;;;;;;;3.05;1.20;;;14.10;99.90;;;;;;5034072;28;20264;-73
2023/05/18 09:20:33;;;;;;;3.30;1.50;;;14.10;99.90;;;;;;5024587;28;20252;-73
2023/05/18 09:23:04;;;;;;;5.03;1.58;;;14.10;99.90;;;;;;5014416;28;20220;-74
2023/05/18 09:25:36;;;;;;;4.65;1.27;;;14.00;99.90;;;;;;5027547;28;20214;-74
2023/05/18 09:28:07;;;;;;;1.83;1.10;;;14.00;99.90;;;;;;5029319;28;20226;-74
2023/05/18 09:30:44;;;;;;;4.20;1.85;;;14.10;99.90;;;;;;5024300;28;20210;-73
2023/05/18 09:33:26;;;;;;;5.45;1.10;;;14.00;99.90;;;;;;5027796;28;20228;-74
2023/05/18 09:35:58;;;;;;;5.32;1.30;;;14.00;99.90;;;;;;5034184;28;20198;-73
2023/05/18 09:38:31;;;;;;;3.42;1.10;;;14.10;99.90;;;;;;5020644;28;20203;-74
2023/05/18 09:41:03;;;;;;;4.25;0.98;;;14.10;99.90;;;;;;5016724;28;20198;-73
2023/05/18 09:43:37;;;;;;;4.50;0.90;;;14.10;99.90;;;;;;5028548;28;20231;-73
2023/05/18 09:46:10;;;;;;;3.85;0.82;;;14.00;99.90;;;;;;5024110;28;20608;-73
2023/05/18 09:48:46;;;;;;;3.22;0.60;;;14.00;99.90;;;;;;5028952;28;20221;-73
2023/05/18 09:51:17;;;;;;;3.60;0.68;;;14.00;99.90;;;;;;5034374;28;20193;-73
2023/05/18 09:53:55;;;;;;;5.35;0.60;;;14.00;99.90;;;;;;5018494;28;20201;-73
2023/05/18 09:56:27;;;;;;;3.83;0.88;;;13.90;99.90;;;;;;5026840;28;20241;-73
2023/05/18 09:58:58;;;;;;;1.95;0.60;;;13.90;99.90;;;;;;5032017;28;20233;-73
2023/05/18 10:01:30;;;;;;;1.98;0.57;;;13.90;99.90;;;;;;5022802;28;20210;-73
2023/05/18 10:04:08;;;;;;;4.80;0.85;;;13.90;99.90;;;;;;5013889;28;20228;-73
2023/05/18 10:06:41;;;;;;;4.95;0.88;;;13.80;99.90;;;;;;5031018;28;20217;-73
2023/05/18 10:09:18;;;;;;;3.00;0.50;;;13.80;99.90;;;;;;5033781;28;20202;-72
2023/05/18 10:11:51;;;;;;;5.25;0.73;;;13.90;99.90;;;;;;5022233;28;20205;-76
2023/05/18 10:14:32;;;;;;;3.10;0.63;;;13.90;99.90;;;;;;5030432;28;20202;-77
2023/05/18 10:17:05;;;;;;;2.00;0.63;;;13.90;99.90;;;;;;5027364;28;20205;-77
2023/05/18 10:19:40;;;;;;;3.38;0.60;;;13.80;99.90;;;;;;5027141;28;20201;-75
2023/05/18 10:22:12;;;;;;;2.85;0.55;;;13.80;99.90;;;;;;5019319;28;20198;-75
2023/05/18 10:24:47;;;;;;;3.50;0.60;;;13.80;99.90;;;;;;5025251;28;20222;-76
2023/05/18 10:27:25;;;;;;;3.95;0.70;;;13.80;99.90;;;;;;5017975;28;20277;-75
2023/05/18 10:29:59;;;;;;;4.28;0.70;;;13.80;99.90;;;;;;5011637;28;20202;-76
2023/05/18 10:32:34;;;;;;;4.88;0.63;;;13.80;99.90;;;;;;5030297;28;20202;-75
2023/05/18 10:35:09;;;;;;;1.73;0.55;;;13.80;99.90;;;;;;5030451;28;20209;-76
2023/05/18 10:37:46;;;;;;;2.35;0.80;;;13.80;99.90;;;;;;5030346;28;20201;-75
2023/05/18 10:40:19;;;;;;;1.85;0.70;;;13.80;99.90;;;;;;5021438;28;20201;-74
2023/05/18 10:42:50;;;;;;;3.22;0.70;;;13.70;99.90;;;;;;5033141;28;20590;-74
2023/05/18 10:45:23;;;;;;;3.78;0.70;;;13.70;99.90;;;;;;5024855;28;20910;-74
2023/05/18 10:47:56;;;;;;;2.67;0.73;;;13.70;99.90;;;;;;5030486;28;20217;-74
2023/05/18 10:50:33;;;;;;;3.35;0.70;;;13.70;99.90;;;;;;5030187;28;20691;-75
2023/05/18 10:53:05;;;;;;;3.42;0.60;;;13.70;99.90;;;;;;5029298;28;20287;-75
2023/05/18 10:55:37;;;;;;;2.03;0.60;;;13.70;99.90;;;;;;5025894;28;20196;-74
2023/05/18 10:58:13;;;;;;;1.73;0.90;;;13.60;99.90;;;;;;5016730;28;20241;-75
2023/05/18 11:00:48;;;;;;;1.40;0.65;;;13.60;99.90;;;;;;5013540;28;20257;-74
2023/05/18 11:03:21;;;;;;;3.10;0.80;;;13.60;99.90;;;;;;5012549;28;20219;-75
2023/05/18 11:06:09;;;;;;;3.60;0.70;;;13.60;99.90;;;;;;5027594;28;20192;-75
2023/05/18 11:08:49;;;;;;;3.60;0.73;;;13.50;99.90;;;;;;5033155;28;20205;-75
2023/05/18 11:11:25;;;;;;;3.35;0.80;;;13.50;99.90;;;;;;5030704;28;20236;-75
2023/05/18 11:14:01;;;;;;;3.47;0.70;;;13.40;99.90;;;;;;5017592;28;20187;-75
2023/05/18 11:16:38;;;;;;;3.90;0.77;;;13.40;99.90;;;;;;5017444;28;20194;-74
2023/05/18 11:19:11;;;;;;;1.88;0.60;;;13.40;99.90;;;;;;5017484;28;20240;-74
2023/05/18 11:21:57;;;;;;;2.05;0.80;;;13.40;99.90;;;;;;5017310;28;20191;-74
2023/05/18 11:24:35;;;;;;;2.42;0.70;;;13.30;99.90;;;;;;5024110;28;20988;-74
2023/05/18 11:27:18;;;;;;;5.18;1.08;;;13.30;99.90;;;;;;5014606;28;20205;-75
2023/05/18 11:30:00;;;;;;;2.63;0.80;;;13.20;99.90;;;;;;5036733;28;20202;-75
2023/05/18 11:32:32;;;;;;;1.67;0.80;;;13.10;99.90;;;;;;5032245;28;20190;-75
2023/05/18 11:35:09;;;;;;;3.67;0.90;;;13.10;99.90;;;;;;5028941;28;20191;-75
2023/05/18 11:37:56;;;;;;;1.75;1.00;;;13.10;99.90;;;;;;5036797;28;20208;-75
2023/05/18 11:40:48;;;;;;;2.58;0.90;;;13.10;99.90;;;;;;5036084;28;20194;-75
2023/05/18 11:43:26;;;;;;;2.47;1.00;;;13.10;99.90;;;;;;5024051;28;20245;-75
2023/05/18 11:45:58;;;;;;;4.32;1.20;;;13.10;99.90;;;;;;5016885;28;20558;-75
2023/05/18 11:48:30;;;;;;;5.13;1.08;;;13.00;99.90;;;;;;5023444;28;20695;-75
2023/05/18 11:51:06;;;;;;;3.97;1.05;;;13.10;99.90;;;;;;5023026;28;20202;-75
2023/05/18 11:53:40;;;;;;;3.85;1.30;;;13.10;99.90;;;;;;5019345;28;20195;-76
2023/05/18 11:56:14;;;;;;;4.55;1.40;;;13.00;99.90;;;;;;5024364;28;20195;-75
2023/05/18 11:58:48;;;;;;;4.53;1.27;;;13.00;99.90;;;;;;5026922;28;20320;-76
2023/05/18 12:01:19;;;;;;;4.57;1.45;;;12.90;99.90;;;;;;5022986;28;20202;-75
2023/05/18 12:03:51;;;;;;;3.45;1.58;;;12.80;99.90;;;;;;5030403;28;20222;-76
2023/05/18 12:06:22;;;;;;;6.68;1.65;;;12.80;99.90;;;;;;5021470;28;20249;-74
2023/05/18 12:08:56;;;;;;;4.38;1.60;;;12.70;99.90;;;;;;5025080;28;20195;-75
2023/05/18 12:11:31;;;;;;;5.30;1.80;;;12.60;99.90;;;;;;5025537;28;20645;-75
2023/05/18 12:14:02;;;;;;;6.25;1.80;;;12.50;99.90;;;;;;5035185;28;20644;-75
2023/05/18 12:16:35;;;;;;;4.68;1.70;;;12.50;99.90;;;;;;5036302;28;20190;-74
2023/05/18 12:19:06;;;;;;;3.20;1.58;;;12.40;99.90;;;;;;5022891;28;20257;-76
2023/05/18 12:21:39;;;;;;;3.55;1.60;;;12.30;99.90;;;;;;5031373;28;20634;-76
2023/05/18 12:24:12;;;;;;;6.43;1.60;;;12.30;99.90;;;;;;5033338;28;20214;-75
2023/05/18 12:26:45;;;;;;;2.90;1.40;;;12.20;99.90;;;;;;5016065;28;20191;-76
2023/05/18 12:29:18;;;;;;;3.70;1.50;;;12.20;99.90;;;;;;5027433;28;20286;-75
2023/05/18 12:31:51;;;;;;;4.55;1.40;;;12.10;99.90;;;;;;5015999;28;20195;-75
2023/05/18 12:34:22;;;;;;;4.18;1.75;;;12.10;99.90;;;;;;5024801;28;20281;-76
2023/05/18 12:36:56;;;;;;;6.53;1.65;;;12.10;99.90;;;;;;5033565;28;20206;-75
2023/05/18 12:39:30;;;;;;;2.83;1.35;;;12.10;99.90;;;;;;5032465;28;20204;-74
2023/05/18 12:42:15;;;;;;;3.40;1.45;;;12.10;99.90;;;;;;5007561;28;20206;-74
2023/05/18 12:44:46;;;;;;;1.45;1.30;;;12.00;99.90;;;;;;5032213;28;20265;-74
2023/05/18 12:47:18;;;;;;;2.75;1.63;;;12.00;99.90;;;;;;5032762;28;20239;-75
2023/05/18 12:49:52;;;;;;;2.95;1.60;;;12.00;99.90;;;;;;5022497;28;20569;-75
2023/05/18 12:52:24;;;;;;;3.15;1.40;;;12.00;99.90;;;;;;5025869;28;20202;-76
2023/05/18 12:54:59;;;;;;;3.88;1.40;;;11.90;99.90;;;;;;5034625;28;20745;-75
2023/05/18 12:57:31;;;;;;;2.75;1.50;;;11.90;99.90;;;;;;5029919;28;20231;-75
2023/05/18 13:00:08;;;;;;;2.60;1.42;;;11.90;99.90;;;;;;5011358;28;20208;-75
2023/05/18 13:02:40;;;;;;;3.42;1.55;;;11.80;99.90;;;;;;5015464;28;20201;-74
2023/05/18 13:05:12;;;;;;;3.80;1.50;;;11.80;99.90;;;;;;5015320;28;20223;-76
2023/05/18 13:07:44;;;;;;;2.95;1.50;;;11.80;99.90;;;;;;5015377;28;20197;-75
2023/05/18 13:10:20;;;;;;;3.28;1.60;;;11.80;99.90;;;;;;5026344;28;20194;-74
2023/05/18 13:12:55;;;;;;;3.22;1.50;;;11.70;99.90;;;;;;5015928;28;20257;-74
2023/05/18 13:15:26;;;;;;;2.33;1.50;;;11.70;99.90;;;;;;5020113;28;20216;-76
2023/05/18 13:18:02;;;;;;;3.28;1.67;;;11.60;99.90;;;;;;5032501;28;20573;-74